Sigas Ingrid — VRCQ6 — position and weather

sailwx.info

Track history (hours):
 
Tides and Currents Weather Stations Pressure Air Temp Water Temp Dewpoint Dewpoint Depression Visibility Wind Speed Wind Dir Waves Ship Positions

Sigas Ingrid

Last reported at 2016-Jun-20 06:14 UTC. Time now 2016-Jun-28 20:38 UTC.
Position N 01°58' E 102°13'.
Warning: this ship's position is 8 days out of date.

Length 100 m; draft 5.4 m.

Type: Ship (hazmat cat A). MMSI: 477658800.

Date/timePositionNaut miles runAvg speedWind from/ knotsBaromVisibWave heightAir tempDewpointWater temp
2016-Jun-20 06:14N 01°58' E 102°13'1014.0
2016-Jun-20 05:32N 01°54' E 102°22'1413.8
2016-Jun-20 04:33N 01°48' E 102°35'7512.5
2016-Jun-19 22:30N 01°11' E 103°40'1110.8
2016-Jun-19 21:30N 01°12' E 103°51'1010.7
2016-Jun-19 20:33N 01°15' E 104°00'  
2016-Jun-17 09:33N 01°14' E 104°02'1313.3
2016-Jun-17 08:33N 01°11' E 103°50'9213.0
2016-Jun-17 01:26N 01°48' E 102°26'  
Track history (hours):
 
Tides and Currents Weather Stations Pressure Air Temp Water Temp Dewpoint Dewpoint Depression Visibility Wind Speed Wind Dir Waves Ship Positions

Sigas Ingrid

Last reported at 2016-Jun-20 06:14 UTC. Time now 2016-Jun-28 20:38 UTC.
Position N 01°58' E 102°13'.
Warning: this ship's position is 8 days out of date.

Length 100 m; draft 5.4 m.

Type: Ship (hazmat cat A). MMSI: 477658800.

Date/timePositionNaut miles runAvg speedWind from/ knotsBaromVisibWave heightAir tempDewpointWater temp
2016-Jun-20 06:14N 01°58' E 102°13'1014.0
2016-Jun-20 05:32N 01°54' E 102°22'1413.8
2016-Jun-20 04:33N 01°48' E 102°35'7512.5
2016-Jun-19 22:30N 01°11' E 103°40'1110.8
2016-Jun-19 21:30N 01°12' E 103°51'1010.7
2016-Jun-19 20:33N 01°15' E 104°00'  
2016-Jun-17 09:33N 01°14' E 104°02'1313.3
2016-Jun-17 08:33N 01°11' E 103°50'9213.0
2016-Jun-17 01:26N 01°48' E 102°26'  

Dump ship's entire track history